Attività con fini culturali e ricreativi - Codice Fiscale 91122750689  


METAR

LIBP 270050Z AUTO 27010KT 230V300 9999 OVC180/// 22/07 Q1009

Dopo la dubbia stagione 2014 sono finalmente arrivati gli annunci per i nuovi voli estivi 2015. Si è partiti subito il 2 aprile con l'inagurazione del volo Alitalia Pescara-Roma Fiumicino che opererà 3 volte al giorno con ATR 72 Etihad (Darwin) che, si spera, non sia stagionale e continui ad offrire il collegamento feeder con Roma.

La Balkan Express ha deciso di riaprire i collegamenti estivi per i balcani siglando un accordo di 3 anni mettendo in campo collegamenti bisettimanali con Tirana - con Fokker 50 Air Vallee - e collegamenti diretti settimanali per Corfù e Mykonos operati con Boeing 737 Mistral.

È già partito il collegamento bisettimanale annunciato da tempo Pescara-Mostar con ATR 72 BH Airlines mentre è stato ritardato al 25 ottobre l'inizio del volo Pescara-Bucarest con WizzAir.

Vedi la programmazione voli

Ultimi caricamenti...


MM81652 (PS-93) Polizia di Stato Agusta-Bell AB212

 


MM62275 (PS-B16) Polizia di Stato Piaggio P-180 Avanti

 


HB-ZDF McDonnell Douglas MD-900 Explorer

Questo sito non utilizza cookie di profilazione. Il sito utilizza cookie tecnici, di analisi anonima di prima parte e di terze parti per servizi di social network.